Time;durP1;ratioP1;P1;durP2;ratioP2;P2;SDS_P1;SDS_P2;PMS_P1;PMS_P2;Temp;Humidity;BMP_temperature;BMP_pressure;BME280_temperature;BME280_humidity;BME280_pressure;Samples;Min_cycle;Max_cycle;Signal;HPM_P1;HPM_P2
2023/12/06 00:02:03;;;;;;;0.00;0.00;;;;;1.40;93213.00;;;;7401231;19;20150;-76
2023/12/06 00:04:31;;;;;;;0.10;0.10;;;;;1.30;93204.00;;;;7400195;19;20605;-78
2023/12/06 00:07:01;;;;;;;0.07;0.07;;;;;1.40;93210.00;;;;7399697;19;20678;-77
2023/12/06 00:09:36;;;;;;;0.00;0.00;;;;;1.30;93206.00;;;;7401748;19;20128;-76
2023/12/06 00:12:04;;;;;;;0.20;0.10;;;;;1.30;93198.00;;;;7400069;19;20596;-77
2023/12/06 00:14:39;;;;;;;0.00;0.00;;;;;1.30;93203.00;;;;7399660;19;20132;-77
2023/12/06 00:17:07;;;;;;;0.00;0.00;;;;;1.20;93207.00;;;;7399464;19;20640;-77
2023/12/06 00:19:35;;;;;;;0.90;0.10;;;;;1.20;93202.00;;;;7400720;19;20169;-78
2023/12/06 00:22:15;;;;;;;0.00;0.00;;;;;1.20;93209.00;;;;7393920;19;20176;-77
2023/12/06 00:24:43;;;;;;;0.00;0.00;;;;;1.20;93211.00;;;;7399180;19;20608;-75
2023/12/06 00:27:21;;;;;;;0.10;0.00;;;;;1.10;93203.00;;;;7399888;19;20128;-77
2023/12/06 00:29:59;;;;;;;1.10;0.10;;;;;1.10;93205.00;;;;7398918;19;20148;-77
2023/12/06 00:32:26;;;;;;;0.00;0.00;;;;;0.90;93209.00;;;;7397932;19;20212;-78
2023/12/06 00:35:03;;;;;;;0.10;0.10;;;;;0.90;93214.00;;;;7399058;19;20133;-76
2023/12/06 00:37:38;;;;;;;0.00;0.00;;;;;0.90;93216.00;;;;7400106;19;20140;-77
2023/12/06 00:40:06;;;;;;;0.03;0.03;;;;;0.90;93221.00;;;;7398953;19;20149;-78
2023/12/06 00:42:40;;;;;;;0.20;0.00;;;;;0.90;93213.00;;;;7398614;19;20169;-77
2023/12/06 00:45:12;;;;;;;0.07;0.00;;;;;1.00;93217.00;;;;7398725;19;20620;-78
2023/12/06 00:47:40;;;;;;;0.00;0.00;;;;;0.90;93224.00;;;;7397422;19;20492;-73
2023/12/06 00:50:14;;;;;;;0.10;0.10;;;;;0.90;93232.00;;;;7398799;19;20133;-73
2023/12/06 00:52:42;;;;;;;0.00;0.00;;;;;1.00;93215.00;;;;7397851;19;20133;-73
2023/12/06 00:55:16;;;;;;;0.00;0.00;;;;;1.00;93226.00;;;;7398112;19;20134;-75
2023/12/06 00:57:44;;;;;;;0.00;0.00;;;;;1.10;93230.00;;;;7397711;19;20124;-73
2023/12/06 01:00:19;;;;;;;0.10;0.10;;;;;1.00;93227.00;;;;7398224;19;21058;-72
2023/12/06 01:02:53;;;;;;;0.00;0.00;;;;;1.00;93230.00;;;;7398950;19;20146;-73
2023/12/06 01:05:20;;;;;;;0.00;0.00;;;;;1.00;93233.00;;;;7398015;19;20124;-72
2023/12/06 01:07:55;;;;;;;0.03;0.00;;;;;1.10;93240.00;;;;7398340;19;20137;-73
2023/12/06 01:10:30;;;;;;;0.00;0.00;;;;;1.00;93233.00;;;;7397886;19;20588;-73
2023/12/06 01:12:57;;;;;;;0.00;0.00;;;;;1.10;93240.00;;;;7396841;19;20540;-73
2023/12/06 01:15:34;;;;;;;0.00;0.00;;;;;1.10;93247.00;;;;7397756;19;20132;-76
2023/12/06 01:18:04;;;;;;;0.00;0.00;;;;;1.10;93253.00;;;;7398173;19;20131;-74
2023/12/06 01:20:46;;;;;;;0.13;0.00;;;;;1.10;93252.00;;;;7392356;19;20141;-74
2023/12/06 01:23:18;;;;;;;0.00;0.00;;;;;1.20;93252.00;;;;7396322;19;20624;-75
2023/12/06 01:25:52;;;;;;;0.00;0.00;;;;;1.20;93256.00;;;;7397587;19;20486;-73
2023/12/06 01:28:20;;;;;;;0.03;0.00;;;;;1.20;93256.00;;;;7390873;19;20185;-73
2023/12/06 01:30:54;;;;;;;0.00;0.00;;;;;1.10;93264.00;;;;7397275;19;20331;-73
2023/12/06 01:33:25;;;;;;;0.00;0.00;;;;;1.20;93267.00;;;;7396088;19;20141;-73
2023/12/06 01:35:57;;;;;;;0.00;0.00;;;;;1.00;93263.00;;;;7397042;19;20129;-73
2023/12/06 01:38:31;;;;;;;0.20;0.10;;;;;1.00;93257.00;;;;7398134;19;20147;-73
2023/12/06 01:41:05;;;;;;;0.00;0.00;;;;;1.10;93265.00;;;;7395327;19;20161;-74
2023/12/06 01:43:33;;;;;;;1.33;0.30;;;;;1.20;93263.00;;;;7397559;19;20154;-73
2023/12/06 01:46:07;;;;;;;0.10;0.00;;;;;1.10;93272.00;;;;7396870;19;20591;-74
2023/12/06 01:48:43;;;;;;;0.00;0.00;;;;;1.10;93273.00;;;;7396060;19;20145;-74
2023/12/06 01:51:22;;;;;;;0.00;0.00;;;;;1.10;93270.00;;;;7396037;19;20128;-74
2023/12/06 01:53:57;;;;;;;0.10;0.10;;;;;1.10;93272.00;;;;7394172;19;20201;-73
2023/12/06 01:56:31;;;;;;;1.80;0.10;;;;;1.10;93266.00;;;;7395061;19;20208;-73
2023/12/06 01:58:59;;;;;;;0.10;0.10;;;;;1.10;93272.00;;;;7395862;19;20149;-73
2023/12/06 02:01:40;;;;;;;0.00;0.00;;;;;1.10;93278.00;;;;7396674;19;20153;-73
2023/12/06 02:04:08;;;;;;;0.33;0.13;;;;;1.00;93276.00;;;;7395188;19;20700;-73
2023/12/06 02:06:44;;;;;;;0.00;0.00;;;;;1.00;93272.00;;;;7396601;19;20160;-73
2023/12/06 02:09:19;;;;;;;0.00;0.00;;;;;1.10;93282.00;;;;7398574;19;20133;-76
2023/12/06 02:11:58;;;;;;;0.10;0.10;;;;;1.10;93285.00;;;;7403987;19;20159;-76
2023/12/06 02:14:33;;;;;;;0.03;0.00;;;;;1.10;93283.00;;;;7400032;19;20138;-76
2023/12/06 02:17:11;;;;;;;0.00;0.00;;;;;1.10;93283.00;;;;7404505;19;20125;-75
2023/12/06 02:19:40;;;;;;;0.20;0.00;;;;;1.10;93288.00;;;;7402686;19;20133;-75
2023/12/06 02:22:21;;;;;;;0.50;0.10;;;;;1.00;93283.00;;;;7401817;19;20144;-77
2023/12/06 02:24:54;;;;;;;0.00;0.00;;;;;1.10;93280.00;;;;7404182;19;20613;-75
2023/12/06 02:27:29;;;;;;;0.33;0.10;;;;;1.20;93271.00;;;;7402174;19;20124;-76
2023/12/06 02:29:56;;;;;;;0.00;0.00;;;;;1.00;93282.00;;;;7403833;19;20154;-75
2023/12/06 02:32:31;;;;;;;0.00;0.00;;;;;1.20;93281.00;;;;7403769;19;20605;-77
2023/12/06 02:35:22;;;;;;;0.27;0.13;;;;;1.20;93276.00;;;;7399556;19;20144;-77
2023/12/06 02:38:00;;;;;;;0.00;0.00;;;;;1.10;93277.00;;;;7403759;19;20129;-77
2023/12/06 02:40:30;;;;;;;0.17;0.10;;;;;1.10;93284.00;;;;7403710;19;20536;-77
2023/12/06 02:43:04;;;;;;;0.10;0.10;;;;;1.20;93281.00;;;;7402980;19;20601;-77
2023/12/06 02:45:35;;;;;;;0.03;0.00;;;;;1.00;93277.00;;;;7401948;19;20450;-76
2023/12/06 02:48:11;;;;;;;0.10;0.10;;;;;1.10;93275.00;;;;7401835;19;20141;-77
2023/12/06 02:50:41;;;;;;;0.10;0.10;;;;;1.10;93274.00;;;;7402806;19;20585;-78
2023/12/06 02:53:31;;;;;;;0.00;0.00;;;;;1.00;93281.00;;;;7402146;19;20143;-77
2023/12/06 02:56:05;;;;;;;0.10;0.10;;;;;0.90;93272.00;;;;7402632;19;20486;-78
2023/12/06 02:58:38;;;;;;;0.63;0.13;;;;;1.10;93274.00;;;;7402854;19;20597;-75
2023/12/06 03:01:15;;;;;;;0.27;0.10;;;;;1.10;93272.00;;;;7401875;19;20739;-76
2023/12/06 03:03:43;;;;;;;0.00;0.00;;;;;1.00;93265.00;;;;7400889;19;20603;-75
2023/12/06 03:06:17;;;;;;;0.20;0.20;;;;;1.00;93261.00;;;;7402387;19;20129;-75
2023/12/06 03:08:54;;;;;;;0.10;0.10;;;;;1.10;93273.00;;;;7401262;19;20144;-76
2023/12/06 03:11:29;;;;;;;0.00;0.00;;;;;1.00;93262.00;;;;7401930;19;20148;-76
2023/12/06 03:14:02;;;;;;;0.17;0.10;;;;;1.10;93276.00;;;;7399915;19;20154;-75
2023/12/06 03:16:36;;;;;;;0.50;0.10;;;;;1.00;93272.00;;;;7401178;19;20605;-76
2023/12/06 03:19:09;;;;;;;2.73;0.17;;;;;1.00;93274.00;;;;7400885;19;20631;-75
2023/12/06 03:21:41;;;;;;;0.10;0.10;;;;;1.00;93279.00;;;;7396300;19;20189;-78
2023/12/06 03:24:14;;;;;;;0.33;0.10;;;;;1.00;93274.00;;;;7402333;19;20125;-77
2023/12/06 03:26:48;;;;;;;0.10;0.10;;;;;1.10;93277.00;;;;7400702;19;20147;-76
2023/12/06 03:29:19;;;;;;;0.10;0.10;;;;;1.10;93281.00;;;;7400230;19;20137;-78
2023/12/06 03:31:53;;;;;;;0.20;0.20;;;;;1.20;93287.00;;;;7400711;19;20133;-79
2023/12/06 03:34:22;;;;;;;1.17;0.20;;;;;1.00;93282.00;;;;7398680;19;20145;-76
2023/12/06 03:36:58;;;;;;;0.23;0.20;;;;;0.90;93281.00;;;;7401336;19;20139;-77
2023/12/06 03:39:32;;;;;;;0.47;0.00;;;;;1.00;93285.00;;;;7401010;19;20158;-78
2023/12/06 03:42:06;;;;;;;0.03;0.03;;;;;1.10;93289.00;;;;7399943;19;20165;-78
2023/12/06 03:44:34;;;;;;;0.17;0.17;;;;;1.00;93294.00;;;;7401405;19;20149;-76
2023/12/06 03:47:10;;;;;;;0.20;0.20;;;;;1.10;93294.00;;;;7401395;19;20137;-77
2023/12/06 03:49:38;;;;;;;0.03;0.00;;;;;1.20;93291.00;;;;7400186;19;20137;-77
2023/12/06 03:52:15;;;;;;;0.10;0.10;;;;;1.20;93295.00;;;;7399961;19;20151;-78
2023/12/06 03:54:42;;;;;;;0.10;0.10;;;;;1.10;93288.00;;;;7398746;19;20174;-78
2023/12/06 03:57:10;;;;;;;0.63;0.40;;;;;1.20;93294.00;;;;7399476;19;20524;-77
2023/12/06 03:59:45;;;;;;;0.10;0.10;;;;;1.20;93301.00;;;;7399426;19;20173;-77
2023/12/06 04:02:14;;;;;;;0.27;0.20;;;;;1.10;93294.00;;;;7398291;19;20137;-79
2023/12/06 04:04:48;;;;;;;0.10;0.00;;;;;1.00;93298.00;;;;7398770;19;20653;-77
2023/12/06 04:07:16;;;;;;;0.37;0.20;;;;;1.20;93295.00;;;;7399835;19;20143;-79
2023/12/06 04:09:51;;;;;;;1.33;0.17;;;;;1.30;93296.00;;;;7398499;19;20149;-77
2023/12/06 04:12:19;;;;;;;0.10;0.10;;;;;1.20;93293.00;;;;7398695;19;20145;-76
2023/12/06 04:14:47;;;;;;;0.10;0.10;;;;;1.20;93294.00;;;;7397820;19;20619;-77
2023/12/06 04:17:24;;;;;;;0.10;0.10;;;;;1.20;93299.00;;;;7398985;19;20125;-73
2023/12/06 04:19:54;;;;;;;0.10;0.10;;;;;1.20;93299.00;;;;7396384;19;20126;-77
2023/12/06 04:22:35;;;;;;;0.10;0.10;;;;;1.20;93314.00;;;;7398241;19;20141;-75
2023/12/06 04:25:11;;;;;;;0.10;0.10;;;;;1.10;93313.00;;;;7398385;19;20220;-76
2023/12/06 04:27:39;;;;;;;0.07;0.07;;;;;1.40;93313.00;;;;7399980;19;20140;-76
2023/12/06 04:30:14;;;;;;;0.10;0.10;;;;;1.40;93320.00;;;;7398937;19;20625;-75
2023/12/06 04:32:50;;;;;;;0.00;0.00;;;;;1.30;93317.00;;;;7396951;19;20148;-77
2023/12/06 04:35:25;;;;;;;4.70;0.10;;;;;1.40;93318.00;;;;7396955;19;20140;-75
2023/12/06 04:37:59;;;;;;;0.20;0.20;;;;;1.20;93316.00;;;;7398932;19;20589;-79
2023/12/06 04:40:33;;;;;;;0.30;0.20;;;;;1.30;93322.00;;;;7400109;19;20628;-78
2023/12/06 04:43:01;;;;;;;0.20;0.10;;;;;1.20;93321.00;;;;7398729;19;20601;-76
2023/12/06 04:45:38;;;;;;;0.20;0.20;;;;;1.40;93322.00;;;;7399145;19;20129;-77
2023/12/06 04:48:05;;;;;;;0.37;0.20;;;;;1.30;93316.00;;;;7399283;19;20144;-78
2023/12/06 04:50:39;;;;;;;0.10;0.10;;;;;1.10;93322.00;;;;7397738;19;20173;-76
2023/12/06 04:53:13;;;;;;;0.20;0.10;;;;;1.10;93326.00;;;;7399179;19;20149;-77
2023/12/06 04:55:41;;;;;;;0.37;0.10;;;;;1.10;93334.00;;;;7397599;19;20129;-76
2023/12/06 04:58:21;;;;;;;1.77;1.23;;;;;1.10;93335.00;;;;7398663;19;20136;-79
2023/12/06 05:00:50;;;;;;;0.17;0.10;;;;;1.10;93333.00;;;;7398221;19;20604;-76
2023/12/06 05:03:19;;;;;;;0.10;0.10;;;;;1.00;93343.00;;;;7397570;19;20139;-77
2023/12/06 05:05:53;;;;;;;0.10;0.10;;;;;1.10;93337.00;;;;7398697;19;20136;-78
2023/12/06 05:08:21;;;;;;;0.17;0.10;;;;;1.10;93338.00;;;;7398244;19;20146;-76
2023/12/06 05:10:48;;;;;;;0.00;0.00;;;;;1.10;93339.00;;;;7398125;19;20136;-77
2023/12/06 05:13:22;;;;;;;1.67;0.10;;;;;1.20;93339.00;;;;7397309;19;20165;-75
2023/12/06 05:15:59;;;;;;;0.23;0.13;;;;;1.10;93336.00;;;;7397201;19;20466;-76
2023/12/06 05:18:33;;;;;;;2.83;0.10;;;;;1.10;93332.00;;;;7397571;19;20690;-76
2023/12/06 05:21:07;;;;;;;0.40;0.40;;;;;1.10;93334.00;;;;7392806;19;20161;-74
2023/12/06 05:23:49;;;;;;;3.03;0.10;;;;;1.20;93333.00;;;;7397091;19;20153;-75
2023/12/06 05:26:19;;;;;;;0.30;0.10;;;;;1.00;93336.00;;;;7389992;19;20220;-75
2023/12/06 05:28:54;;;;;;;0.00;0.00;;;;;1.20;93332.00;;;;7385059;19;20132;-73
2023/12/06 05:31:35;;;;;;;0.10;0.10;;;;;1.10;93331.00;;;;7383580;19;20133;-73
2023/12/06 05:34:04;;;;;;;0.13;0.13;;;;;1.00;93341.00;;;;7383953;19;20142;-74
2023/12/06 05:36:40;;;;;;;0.10;0.10;;;;;0.90;93338.00;;;;7386771;19;20139;-74
2023/12/06 05:39:08;;;;;;;0.00;0.00;;;;;1.00;93337.00;;;;7386657;19;20516;-73
2023/12/06 05:41:42;;;;;;;0.07;0.07;;;;;0.90;93336.00;;;;7384546;19;20139;-74
2023/12/06 05:44:19;;;;;;;0.07;0.03;;;;;1.00;93339.00;;;;7388164;19;20137;-74
2023/12/06 05:46:47;;;;;;;1.40;0.10;;;;;1.20;93336.00;;;;7391366;19;20129;-73
2023/12/06 05:49:22;;;;;;;0.10;0.10;;;;;1.00;93334.00;;;;7393378;19;20153;-75
2023/12/06 05:51:52;;;;;;;0.10;0.10;;;;;1.00;93330.00;;;;7392695;19;20148;-73
2023/12/06 05:54:28;;;;;;;0.60;0.60;;;;;1.20;93337.00;;;;7392588;19;20148;-76
2023/12/06 05:57:12;;;;;;;2.97;1.23;;;;;1.20;93333.00;;;;7390983;19;20713;-74
2023/12/06 05:59:40;;;;;;;1.73;1.43;;;;;1.10;93325.00;;;;7391398;19;20133;-75
2023/12/06 06:02:15;;;;;;;2.77;1.63;;;;;1.10;93340.00;;;;7390039;19;20133;-74
2023/12/06 06:04:43;;;;;;;3.23;2.00;;;;;1.20;93334.00;;;;7390870;19;20215;-73
2023/12/06 06:07:14;;;;;;;3.20;2.17;;;;;1.10;93334.00;;;;7390794;19;20200;-73
2023/12/06 06:09:48;;;;;;;3.03;2.10;;;;;1.20;93341.00;;;;7391561;19;20507;-72
2023/12/06 06:12:25;;;;;;;2.30;1.97;;;;;1.20;93348.00;;;;7391354;19;20149;-72
2023/12/06 06:14:59;;;;;;;4.07;2.60;;;;;1.30;93351.00;;;;7392368;19;20133;-73
2023/12/06 06:17:27;;;;;;;3.60;2.70;;;;;1.40;93350.00;;;;7392639;19;20588;-72
2023/12/06 06:20:08;;;;;;;3.83;2.50;;;;;1.30;93349.00;;;;7391759;19;20135;-73
2023/12/06 06:22:37;;;;;;;3.90;2.70;;;;;1.30;93350.00;;;;7389711;19;20164;-75
2023/12/06 06:25:12;;;;;;;4.37;3.00;;;;;1.30;93350.00;;;;7392600;19;20132;-72
2023/12/06 06:27:40;;;;;;;7.20;3.50;;;;;1.40;93360.00;;;;7392518;19;20139;-73
2023/12/06 06:30:14;;;;;;;6.63;3.83;;;;;1.40;93364.00;;;;7389643;19;20227;-74
2023/12/06 06:32:42;;;;;;;5.87;4.33;;;;;1.30;93360.00;;;;7390430;19;20509;-72
2023/12/06 06:35:18;;;;;;;5.60;4.40;;;;;1.40;93368.00;;;;7391461;19;20173;-72
2023/12/06 06:37:46;;;;;;;6.50;4.73;;;;;1.40;93365.00;;;;7390612;19;20180;-72
2023/12/06 06:40:22;;;;;;;6.83;4.93;;;;;1.30;93373.00;;;;7393349;19;20459;-75
2023/12/06 06:42:58;;;;;;;7.20;5.70;;;;;1.30;93368.00;;;;7394103;19;20156;-74
2023/12/06 06:45:33;;;;;;;6.80;4.80;;;;;1.40;93369.00;;;;7393656;19;20170;-75
2023/12/06 06:48:10;;;;;;;9.40;5.37;;;;;1.30;93388.00;;;;7392899;19;20476;-76
2023/12/06 06:50:46;;;;;;;9.70;4.83;;;;;1.30;93378.00;;;;7393101;19;20135;-76
2023/12/06 06:53:14;;;;;;;8.77;5.80;;;;;1.40;93382.00;;;;7394273;19;20133;-75
2023/12/06 06:55:53;;;;;;;11.47;7.23;;;;;1.40;93375.00;;;;7391851;19;20581;-75
2023/12/06 06:58:22;;;;;;;10.43;6.00;;;;;1.40;93382.00;;;;7392774;19;20204;-75
2023/12/06 07:00:58;;;;;;;9.13;6.23;;;;;1.50;93385.00;;;;7392434;19;20141;-76
2023/12/06 07:03:27;;;;;;;10.17;6.97;;;;;1.50;93395.00;;;;7393449;19;20521;-74
2023/12/06 07:06:02;;;;;;;13.83;7.73;;;;;1.40;93386.00;;;;7392720;19;20144;-76
2023/12/06 07:08:31;;;;;;;9.80;6.90;;;;;1.40;93410.00;;;;7392168;19;20145;-76
2023/12/06 07:11:07;;;;;;;9.00;6.87;;;;;1.30;93394.00;;;;7393874;19;20151;-76
2023/12/06 07:13:35;;;;;;;10.70;7.43;;;;;1.20;93412.00;;;;7391849;19;20181;-76
2023/12/06 07:16:12;;;;;;;14.00;7.87;;;;;1.20;93427.00;;;;7389960;19;20152;-76
2023/12/06 07:18:49;;;;;;;13.00;8.33;;;;;1.10;93414.00;;;;7390466;19;20141;-75
2023/12/06 07:21:38;;;;;;;15.87;9.27;;;;;1.00;93423.00;;;;7385999;19;20157;-75
2023/12/06 07:24:12;;;;;;;14.70;9.57;;;;;1.10;93423.00;;;;7388874;19;20148;-77
2023/12/06 07:26:46;;;;;;;15.03;9.33;;;;;0.90;93430.00;;;;7390235;19;20129;-75
2023/12/06 07:29:16;;;;;;;18.13;10.23;;;;;1.00;93438.00;;;;7388461;19;20141;-75
2023/12/06 07:31:51;;;;;;;15.13;10.10;;;;;0.90;93440.00;;;;7390649;19;20144;-75
2023/12/06 07:34:26;;;;;;;16.87;10.17;;;;;0.90;93455.00;;;;7388564;19;20148;-77
2023/12/06 07:37:15;;;;;;;17.30;9.23;;;;;0.70;93451.00;;;;7389460;19;20133;-76
2023/12/06 07:39:47;;;;;;;15.63;10.23;;;;;0.70;93443.00;;;;7390392;19;20504;-77
2023/12/06 07:42:21;;;;;;;13.80;9.63;;;;;0.70;93456.00;;;;7390256;19;20128;-77
2023/12/06 07:44:55;;;;;;;15.53;10.87;;;;;0.60;93449.00;;;;7387767;19;20141;-76
2023/12/06 07:47:29;;;;;;;16.83;10.37;;;;;0.70;93460.00;;;;7387365;19;20137;-75
2023/12/06 07:49:57;;;;;;;19.10;10.83;;;;;0.70;93458.00;;;;7392580;19;20129;-74
2023/12/06 07:52:25;;;;;;;16.97;11.60;;;;;0.50;93470.00;;;;7392807;19;20153;-74
2023/12/06 07:55:00;;;;;;;17.93;11.63;;;;;0.60;93468.00;;;;7388176;19;20148;-74
2023/12/06 07:57:28;;;;;;;23.07;12.50;;;;;0.60;93469.00;;;;7390374;19;21347;-74
2023/12/06 07:59:56;;;;;;;16.57;11.33;;;;;0.50;93481.00;;;;7391446;19;20520;-74
2023/12/06 08:02:54;;;;;;;15.87;10.20;;;;;0.30;93479.00;;;;7388974;19;20299;-72
2023/12/06 08:05:29;;;;;;;16.07;10.43;;;;;0.60;93496.00;;;;7391831;19;20132;-74
2023/12/06 08:08:08;;;;;;;18.93;10.30;;;;;0.50;93485.00;;;;7386670;19;20239;-74
2023/12/06 08:10:36;;;;;;;17.37;10.80;;;;;0.50;93486.00;;;;7391008;19;20149;-74
2023/12/06 08:13:10;;;;;;;19.43;11.60;;;;;0.60;93490.00;;;;7388365;19;20538;-74
2023/12/06 08:15:38;;;;;;;15.47;10.70;;;;;0.50;93494.00;;;;7389408;19;20133;-74
2023/12/06 08:18:14;;;;;;;18.70;11.40;;;;;0.50;93493.00;;;;7387374;19;20891;-73
2023/12/06 08:20:54;;;;;;;22.37;12.40;;;;;0.60;93500.00;;;;7384475;19;20148;-73
2023/12/06 08:23:35;;;;;;;21.27;13.03;;;;;0.70;93505.00;;;;7389819;19;20595;-74
2023/12/06 08:26:06;;;;;;;18.53;11.90;;;;;0.50;93510.00;;;;7389756;19;21259;-74
2023/12/06 08:28:42;;;;;;;19.67;12.63;;;;;0.60;93518.00;;;;7389459;19;20148;-74
2023/12/06 08:31:12;;;;;;;21.10;12.23;;;;;0.60;93519.00;;;;7390054;19;20220;-75
2023/12/06 08:33:47;;;;;;;19.50;12.70;;;;;0.60;93509.00;;;;7389991;19;20591;-74
2023/12/06 08:36:15;;;;;;;18.70;11.53;;;;;0.60;93529.00;;;;7389657;19;20153;-75
2023/12/06 08:38:54;;;;;;;18.23;11.33;;;;;0.70;93526.00;;;;7390929;19;20501;-73
2023/12/06 08:41:23;;;;;;;23.63;12.93;;;;;0.40;93524.00;;;;7390495;19;20162;-74
2023/12/06 08:43:59;;;;;;;20.57;13.43;;;;;0.30;93517.00;;;;7389500;19;20158;-74
2023/12/06 08:46:35;;;;;;;18.97;12.00;;;;;0.60;93524.00;;;;7390931;19;20137;-75
2023/12/06 08:49:13;;;;;;;17.40;11.83;;;;;0.40;93528.00;;;;7389331;19;20496;-74
2023/12/06 08:51:54;;;;;;;19.97;12.07;;;;;0.40;93530.00;;;;7390711;19;20150;-72
2023/12/06 08:54:31;;;;;;;18.30;12.57;;;;;0.50;93535.00;;;;7387433;19;20148;-74
2023/12/06 08:57:00;;;;;;;20.97;12.70;;;;;0.70;93528.00;;;;7388396;19;20664;-75
2023/12/06 08:59:37;;;;;;;21.03;13.23;;;;;0.70;93544.00;;;;7386566;19;20164;-79
2023/12/06 09:02:04;;;;;;;21.20;13.43;;;;;0.60;93556.00;;;;7386270;19;20152;-76
2023/12/06 09:04:41;;;;;;;19.97;12.70;;;;;0.30;93554.00;;;;7386137;19;20187;-78
2023/12/06 09:07:09;;;;;;;25.20;14.50;;;;;0.60;93551.00;;;;7386157;19;20656;-77
2023/12/06 09:09:48;;;;;;;23.03;14.10;;;;;0.40;93557.00;;;;7386271;19;20201;-79
2023/12/06 09:12:15;;;;;;;23.37;13.77;;;;;0.50;93554.00;;;;7386012;19;20562;-79
2023/12/06 09:14:43;;;;;;;20.43;13.27;;;;;0.20;93559.00;;;;7386087;19;20156;-78
2023/12/06 09:17:20;;;;;;;21.27;13.30;;;;;0.40;93568.00;;;;7385744;19;20608;-79
2023/12/06 09:19:56;;;;;;;24.13;14.37;;;;;0.60;93569.00;;;;7388639;19;20140;-79
2023/12/06 09:22:38;;;;;;;18.87;12.73;;;;;0.50;93572.00;;;;7393268;19;20223;-78
2023/12/06 09:25:07;;;;;;;19.33;13.00;;;;;0.60;93584.00;;;;7392742;19;20152;-75
2023/12/06 09:27:41;;;;;;;23.40;13.77;;;;;0.50;93583.00;;;;7393782;19;20128;-75
2023/12/06 09:30:12;;;;;;;19.93;12.57;;;;;0.50;93580.00;;;;7391611;19;20145;-76
2023/12/06 09:32:47;;;;;;;20.30;13.47;;;;;0.60;93587.00;;;;7391726;19;20145;-77
2023/12/06 09:35:21;;;;;;;21.23;13.53;;;;;0.50;93591.00;;;;7392059;19;20617;-76
2023/12/06 09:37:50;;;;;;;19.57;13.40;;;;;0.60;93589.00;;;;7393665;19;20140;-77
2023/12/06 09:40:25;;;;;;;18.33;11.40;;;;;0.50;93592.00;;;;7391814;19;20155;-77
2023/12/06 09:42:58;;;;;;;19.53;12.27;;;;;0.80;93584.00;;;;7393281;19;20132;-76
2023/12/06 09:45:33;;;;;;;20.37;13.30;;;;;0.50;93590.00;;;;7391342;19;20142;-75
2023/12/06 09:48:06;;;;;;;19.00;12.67;;;;;0.50;93599.00;;;;7392767;19;20143;-74
2023/12/06 09:50:41;;;;;;;17.77;12.60;;;;;0.60;93602.00;;;;7392699;19;20125;-75
2023/12/06 09:53:16;;;;;;;19.83;13.20;;;;;0.40;93612.00;;;;7391328;19;20146;-77
2023/12/06 09:55:50;;;;;;;18.23;12.73;;;;;0.60;93615.00;;;;7391031;19;20654;-79
2023/12/06 09:58:24;;;;;;;19.83;12.07;;;;;0.70;93615.00;;;;7390446;19;20517;-78
2023/12/06 10:01:01;;;;;;;19.87;13.23;;;;;0.40;93616.00;;;;7390566;19;20148;-78
2023/12/06 10:03:29;;;;;;;18.60;12.73;;;;;0.50;93620.00;;;;7390570;19;20158;-78
2023/12/06 10:06:03;;;;;;;19.90;13.43;;;;;0.40;93619.00;;;;7391559;19;20656;-78
2023/12/06 10:08:37;;;;;;;23.30;13.40;;;;;0.50;93621.00;;;;7390183;19;20524;-77
2023/12/06 10:11:13;;;;;;;20.20;13.87;;;;;0.60;93623.00;;;;7390911;19;20137;-75
2023/12/06 10:13:47;;;;;;;20.80;13.43;;;;;0.50;93635.00;;;;7391946;19;20196;-74
2023/12/06 10:16:22;;;;;;;19.43;12.47;;;;;0.40;93627.00;;;;7391994;19;20135;-74
2023/12/06 10:18:57;;;;;;;20.27;13.20;;;;;0.40;93625.00;;;;7393739;19;20140;-76
2023/12/06 10:21:39;;;;;;;17.67;12.83;;;;;0.40;93612.00;;;;7389563;19;20145;-74
2023/12/06 10:24:14;;;;;;;23.10;14.07;;;;;0.60;93629.00;;;;7392688;19;20149;-74
2023/12/06 10:26:42;;;;;;;20.23;13.13;;;;;0.70;93635.00;;;;7390984;19;20513;-74
2023/12/06 10:29:18;;;;;;;21.73;14.13;;;;;0.40;93638.00;;;;7390329;19;20152;-73
2023/12/06 10:31:54;;;;;;;20.67;13.17;;;;;0.50;93634.00;;;;7390662;19;20148;-75
2023/12/06 10:34:30;;;;;;;18.23;13.10;;;;;0.30;93627.00;;;;7392250;19;20158;-74
2023/12/06 10:36:59;;;;;;;19.20;13.17;;;;;0.40;93631.00;;;;7391786;19;20148;-75
2023/12/06 10:39:37;;;;;;;21.13;13.63;;;;;0.50;93645.00;;;;7390269;19;20149;-74
2023/12/06 10:42:14;;;;;;;19.80;13.67;;;;;0.50;93637.00;;;;7390305;19;20136;-76
2023/12/06 10:44:51;;;;;;;22.13;13.97;;;;;0.50;93634.00;;;;7394020;19;20157;-75
2023/12/06 10:47:26;;;;;;;20.27;12.93;;;;;0.70;93629.00;;;;7390980;19;20609;-74
2023/12/06 10:50:03;;;;;;;23.50;13.97;;;;;0.60;93634.00;;;;7391247;19;20556;-75
2023/12/06 10:52:33;;;;;;;15.43;11.30;;;;;0.50;93634.00;;;;7392849;19;20649;-74
2023/12/06 10:55:10;;;;;;;16.03;10.80;;;;;0.60;93639.00;;;;7392687;19;20132;-74
2023/12/06 10:57:41;;;;;;;19.17;12.30;;;;;0.40;93632.00;;;;7393086;19;21678;-74
2023/12/06 11:00:17;;;;;;;18.20;11.27;;;;;0.50;93635.00;;;;7392329;19;20140;-74
2023/12/06 11:02:46;;;;;;;16.80;10.60;;;;;0.70;93626.00;;;;7392560;19;20562;-74
2023/12/06 11:05:24;;;;;;;15.90;10.60;;;;;0.60;93624.00;;;;7394418;19;20129;-73
2023/12/06 11:08:12;;;;;;;16.73;10.33;;;;;0.40;93639.00;;;;7392172;19;20496;-74
2023/12/06 11:11:01;;;;;;;18.40;10.47;;;;;0.40;93631.00;;;;7392240;19;20156;-72
2023/12/06 11:14:09;;;;;;;16.50;11.00;;;;;0.70;93632.00;;;;7394182;19;20193;-76
2023/12/06 11:17:14;;;;;;;16.43;10.57;;;;;0.70;93638.00;;;;7394003;19;20145;-73
2023/12/06 11:19:51;;;;;;;14.73;9.73;;;;;0.50;93650.00;;;;7395231;19;20577;-75
2023/12/06 11:22:27;;;;;;;13.80;9.70;;;;;0.70;93645.00;;;;7393777;19;20186;-76
2023/12/06 11:25:15;;;;;;;13.57;9.57;;;;;0.70;93650.00;;;;7394388;19;20227;-76
2023/12/06 11:27:55;;;;;;;15.97;9.77;;;;;0.50;93648.00;;;;7391421;19;20148;-76
2023/12/06 11:30:31;;;;;;;14.43;10.23;;;;;0.50;93649.00;;;;7391064;19;20587;-75
2023/12/06 11:33:10;;;;;;;15.73;10.80;;;;;0.60;93659.00;;;;7391992;19;20137;-76
2023/12/06 11:35:53;;;;;;;12.87;9.20;;;;;0.40;93664.00;;;;7392939;19;20520;-76
2023/12/06 11:38:42;;;;;;;15.07;9.57;;;;;0.60;93672.00;;;;7390630;19;20457;-76
2023/12/06 11:41:22;;;;;;;14.33;10.03;;;;;0.70;93663.00;;;;7391218;19;20140;-76
2023/12/06 11:43:51;;;;;;;13.17;9.67;;;;;0.90;93672.00;;;;7392081;19;20139;-75
2023/12/06 11:46:27;;;;;;;13.97;9.10;;;;;0.80;93672.00;;;;7391706;19;20195;-76
2023/12/06 11:48:56;;;;;;;15.50;10.30;;;;;0.60;93668.00;;;;7389713;19;20593;-75
2023/12/06 11:51:31;;;;;;;14.03;10.13;;;;;0.70;93666.00;;;;7390677;19;20603;-75
2023/12/06 11:54:04;;;;;;;12.67;8.93;;;;;0.60;93670.00;;;;7392721;19;20141;-76
2023/12/06 11:56:39;;;;;;;13.90;10.37;;;;;1.00;93660.00;;;;7390522;19;20154;-75
2023/12/06 11:59:11;;;;;;;14.97;9.90;;;;;0.60;93670.00;;;;7389326;19;20197;-77
2023/12/06 12:01:46;;;;;;;16.30;10.43;;;;;0.60;93673.00;;;;7387739;19;20129;-75
2023/12/06 12:04:21;;;;;;;14.07;10.03;;;;;1.00;93663.00;;;;7388898;19;20132;-75
2023/12/06 12:07:00;;;;;;;15.13;10.37;;;;;0.90;93664.00;;;;7388752;19;20133;-75
2023/12/06 12:09:48;;;;;;;13.83;9.83;;;;;0.60;93660.00;;;;7387735;19;20629;-75
2023/12/06 12:12:24;;;;;;;15.67;10.73;;;;;0.70;93668.00;;;;7388033;19;20156;-75
2023/12/06 12:14:51;;;;;;;17.93;10.83;;;;;0.80;93669.00;;;;7387433;19;20577;-76
2023/12/06 12:17:26;;;;;;;13.30;9.73;;;;;0.90;93655.00;;;;7387700;19;20160;-76
2023/12/06 12:20:04;;;;;;;13.37;9.97;;;;;1.10;93663.00;;;;7385758;19;20150;-76
2023/12/06 12:22:55;;;;;;;14.77;9.73;;;;;0.80;93666.00;;;;7387560;19;20168;-77
2023/12/06 12:25:31;;;;;;;14.63;9.97;;;;;1.00;93658.00;;;;7387960;19;20188;-77
2023/12/06 12:28:10;;;;;;;14.10;9.57;;;;;1.10;93659.00;;;;7387833;19;20464;-77
2023/12/06 12:30:40;;;;;;;15.13;9.70;;;;;0.80;93680.00;;;;7386077;19;20142;-73
2023/12/06 12:33:07;;;;;;;14.13;9.30;;;;;1.00;93659.00;;;;7386037;19;20156;-73
2023/12/06 12:35:42;;;;;;;11.43;8.77;;;;;1.20;93667.00;;;;7385924;19;20596;-74
2023/12/06 12:38:11;;;;;;;11.50;8.83;;;;;1.00;93669.00;;;;7387187;19;20133;-72
2023/12/06 12:40:56;;;;;;;12.40;8.80;;;;;1.30;93677.00;;;;7384371;19;20148;-74
2023/12/06 12:43:30;;;;;;;10.90;8.67;;;;;1.30;93679.00;;;;7387974;19;20626;-74
2023/12/06 12:46:07;;;;;;;11.40;8.33;;;;;1.10;93671.00;;;;7386800;19;20149;-74
2023/12/06 12:48:42;;;;;;;10.73;8.17;;;;;1.20;93674.00;;;;7385920;19;20637;-75
2023/12/06 12:51:19;;;;;;;9.87;7.30;;;;;1.50;93683.00;;;;7385164;19;20132;-73
2023/12/06 12:53:55;;;;;;;10.90;7.87;;;;;1.40;93689.00;;;;7385622;19;20136;-73
2023/12/06 12:56:24;;;;;;;11.30;8.33;;;;;1.10;93685.00;;;;7387089;19;20133;-74